Terminal Aerodrome Forecast
Issued by NWS

Home | Current Version | Previous Version | Text Only | Print | Product List | Glossary On
Versions: 1 2 3 4 5 6 7 8 9 10 11 12 13 14 15 16 17 18 19 20 21
000
FTAK31 PANC 262020 AAA
TAFAGK
TAF AMD
PAGK 262020Z 2620/2718 VRB04KT 6SM -SN OVC035
      TEMPO 2620/2621 3SM -SN OVC025
     FM262200 VRB03KT P6SM BKN035
     FM270800 VRB04KT P6SM VCFG SCT005 BKN015 BKN200=

USA.gov is the U.S. government's official web portal to all federal, state and local government web resources and services.